Terminal Aerodrome Forecast
Issued by NWS Atlanta, GA

Current Version | Previous Version | Text Only | Print | Product List | Glossary On
Versions: 1 2 3 4 5 6 7 8 9 10 11 12 13 14 15 16 17 18 19 20 21 22 23 24 25 26 27 28 29 30 31 32 33 34 35
000
FTUS42 KFFC 120806 AAA
TAFATL
TAF AMD
KATL 120806Z 1208/1312 25008KT P6SM SCT250 WS020/27035KT
     FM121300 30012G20KT P6SM BKN200
     FM121600 31017G30KT P6SM BKN030
     FM122000 31017G28KT P6SM SCT030
     FM130000 31012G18KT P6SM SKC
     FM130500 31010KT P6SM BKN250=

USA.gov is the U.S. government's official web portal to all federal, state and local government web resources and services.